createdAt,value
2022-08-26T04:04:00.413Z,100624.84
2022-08-26T04:06:38.089Z,100636.50
2022-08-26T04:09:09.374Z,100652.34
2022-08-26T04:11:39.656Z,100671.22
2022-08-26T04:14:10.777Z,100695.69
2022-08-26T04:16:38.896Z,100712.19
2022-08-26T04:19:06.692Z,100743.56
2022-08-26T04:21:34.901Z,100763.25
2022-08-26T04:24:03.598Z,100783.53
2022-08-26T04:26:37.093Z,100797.81
2022-08-26T04:29:10.490Z,100807.22
2022-08-26T04:31:38.935Z,100824.56
2022-08-26T04:34:07.112Z,100838.69
2022-08-26T04:36:35.196Z,100844.66
2022-08-26T04:39:03.789Z,100864.66
2022-08-26T04:41:32.060Z,100877.59
2022-08-26T04:43:59.244Z,100892.88
2022-08-26T04:46:26.439Z,100898.41
2022-08-26T04:48:54.011Z,100902.44
2022-08-26T04:51:28.136Z,100920.50
2022-08-26T04:53:57.071Z,100932.25
2022-08-26T04:56:34.004Z,100929.25
2022-08-26T04:59:03.053Z,100946.25
2022-08-26T05:01:31.299Z,100955.88
2022-08-26T05:03:58.843Z,100946.06
2022-08-26T05:06:27.206Z,100952.06
2022-08-26T05:08:55.327Z,100963.97
2022-08-26T05:11:23.281Z,100937.00
2022-08-26T05:13:50.654Z,100935.91
2022-08-26T05:16:18.079Z,100941.41
2022-08-26T05:18:45.801Z,100940.44
2022-08-26T05:21:24.857Z,100949.25
2022-08-26T05:23:54.872Z,100957.13
2022-08-26T05:26:27.333Z,100961.16
2022-08-26T05:28:55.743Z,100972.25
2022-08-26T05:31:27.110Z,100978.53
2022-08-26T05:33:56.818Z,100980.91
2022-08-26T05:36:26.937Z,100979.34
2022-08-26T05:38:55.245Z,100973.84
2022-08-26T05:41:36.210Z,100984.25
2022-08-26T05:44:07.659Z,100988.09
2022-08-26T05:46:36.647Z,100985.13
2022-08-26T05:49:05.258Z,100997.81
2022-08-26T05:51:35.064Z,100995.31
2022-08-26T05:54:04.030Z,101003.66
2022-08-26T05:56:31.108Z,101009.34
2022-08-26T05:58:59.667Z,101027.84
2022-08-26T06:01:29.095Z,101046.38
2022-08-26T06:04:01.359Z,101057.53
2022-08-26T06:06:32.374Z,101050.91
2022-08-26T06:09:01.558Z,101051.72
2022-08-26T06:11:32.425Z,101049.03
2022-08-26T06:14:03.728Z,101062.50
2022-08-26T06:16:34.779Z,101066.13
2022-08-26T06:19:10.433Z,101065.00
2022-08-26T06:21:41.322Z,101067.47
2022-08-26T06:24:30.302Z,101092.69
2022-08-26T06:27:04.351Z,101096.38
2022-08-26T06:29:34.012Z,101112.50
2022-08-26T06:32:02.730Z,101125.97
2022-08-26T06:34:33.603Z,101120.88
2022-08-26T06:37:02.796Z,101130.00
2022-08-26T06:39:31.608Z,101141.13
2022-08-26T06:42:00.563Z,101134.03
2022-08-26T06:44:28.158Z,101136.28
2022-08-26T06:46:55.401Z,101116.72
2022-08-26T06:49:26.720Z,101121.09
2022-08-26T06:51:58.924Z,101129.88
2022-08-26T06:54:27.349Z,101141.81
2022-08-26T06:56:57.143Z,101148.13
2022-08-26T06:59:26.363Z,101158.75
2022-08-26T07:01:55.127Z,101161.06
2022-08-26T07:04:24.655Z,101159.63
2022-08-26T07:06:53.512Z,101163.53
2022-08-26T07:09:26.528Z,101145.84
2022-08-26T07:11:56.243Z,101140.16
2022-08-26T07:14:25.237Z,101123.38
2022-08-26T07:16:54.229Z,101130.03
2022-08-26T07:19:31.109Z,101132.50
2022-08-26T07:22:02.124Z,101137.69
2022-08-26T07:24:29.554Z,101142.06
2022-08-26T07:27:02.839Z,101161.84
2022-08-26T07:29:30.764Z,101170.53
2022-08-26T07:31:57.990Z,101175.59
2022-08-26T07:34:25.338Z,101184.38
2022-08-26T07:36:53.456Z,101197.44
2022-08-26T07:39:23.441Z,101213.63
2022-08-26T07:41:51.186Z,101210.44
2022-08-26T07:44:19.080Z,101222.72
2022-08-26T07:46:52.251Z,101221.53
2022-08-26T07:49:23.139Z,101230.97
2022-08-26T07:51:51.764Z,101228.59
2022-08-26T07:54:19.174Z,101229.06
2022-08-26T07:56:48.590Z,101232.97
2022-08-26T07:59:17.960Z,101231.44
2022-08-26T08:01:46.324Z,101235.00
2022-08-26T08:04:15.258Z,101243.72
2022-08-26T08:06:43.761Z,101245.72
2022-08-26T08:09:13.941Z,101251.22
2022-08-26T08:11:44.990Z,101263.06
2022-08-26T08:14:13.298Z,101268.19
2022-08-26T08:16:42.528Z,101274.09
2022-08-26T08:19:15.084Z,101277.22
2022-08-26T08:21:43.726Z,101281.56
2022-08-26T08:24:11.498Z,101288.63
2022-08-26T08:26:41.873Z,101298.13
2022-08-26T08:29:09.008Z,101305.63
2022-08-26T08:31:56.162Z,101317.81
2022-08-26T08:34:26.153Z,101317.75
2022-08-26T08:36:54.183Z,101316.09
2022-08-26T08:39:22.234Z,101314.19
2022-08-26T08:42:25.014Z,101318.06
2022-08-26T08:44:55.488Z,101327.06
2022-08-26T08:47:29.070Z,101331.34
2022-08-26T08:50:02.976Z,101335.69
2022-08-26T08:52:35.295Z,101342.34
2022-08-26T08:55:10.393Z,101358.59
2022-08-26T08:58:10.257Z,101354.13
2022-08-26T09:00:46.551Z,101353.66
2022-08-26T09:03:38.004Z,101360.63
2022-08-26T09:06:16.935Z,101349.56
2022-08-26T09:08:50.082Z,101362.03
2022-08-26T09:11:19.894Z,101356.88
2022-08-26T09:13:53.685Z,101369.81
2022-08-26T09:16:37.298Z,101367.06
2022-08-26T09:19:38.529Z,101366.50
2022-08-26T09:22:08.804Z,101364.84
2022-08-26T09:24:41.758Z,101364.81
2022-08-26T09:27:43.173Z,101363.69
2022-08-26T09:30:16.953Z,101364.66
2022-08-26T09:33:02.222Z,101364.38
2022-08-26T09:35:33.015Z,101358.00
2022-08-26T09:38:00.610Z,101360.59
2022-08-26T09:40:35.897Z,101357.50
2022-08-26T09:43:22.483Z,101356.53
2022-08-26T09:45:59.434Z,101353.31
2022-08-26T09:48:35.569Z,101366.63
2022-08-26T09:51:27.358Z,101360.91
2022-08-26T09:53:59.887Z,101349.63
2022-08-26T09:56:33.494Z,101355.78
2022-08-26T09:59:02.066Z,101352.59
2022-08-26T10:01:44.898Z,101351.69
2022-08-26T10:04:21.056Z,101342.75
2022-08-26T10:07:07.588Z,101347.59
2022-08-26T10:09:39.036Z,101340.56
2022-08-26T10:12:19.250Z,101332.69
2022-08-26T10:14:53.901Z,101337.56
2022-08-26T10:17:37.914Z,101325.03
2022-08-26T10:20:25.341Z,101327.47
2022-08-26T10:23:10.378Z,101326.25
2022-08-26T10:25:49.144Z,101328.00
2022-08-26T10:28:35.485Z,101332.28
2022-08-26T10:31:28.258Z,101334.09
2022-08-26T10:33:58.830Z,101339.41
2022-08-26T10:37:14.567Z,101332.88
2022-08-26T10:39:57.076Z,101320.59
2022-08-26T10:42:33.308Z,101313.00
2022-08-26T10:45:07.629Z,101320.78
2022-08-26T10:47:51.865Z,101316.91
2022-08-26T10:50:20.673Z,101310.28
2022-08-26T10:53:27.291Z,101313.22
2022-08-26T10:56:19.429Z,101303.16
2022-08-26T10:58:54.385Z,101300.44
2022-08-26T11:01:42.996Z,101297.06
2022-08-26T11:04:17.219Z,101293.97
2022-08-26T11:06:46.053Z,101272.19
2022-08-26T11:09:49.685Z,101272.69
2022-08-26T11:12:37.277Z,101283.06
2022-08-26T11:15:37.000Z,101270.16
2022-08-26T11:18:05.280Z,101262.22
2022-08-26T11:20:47.140Z,101257.78
2022-08-26T11:23:28.791Z,101254.03
2022-08-26T11:26:01.934Z,101242.44
2022-08-26T11:28:49.991Z,101226.97
2022-08-26T11:31:26.176Z,101220.44
2022-08-26T11:34:04.326Z,101222.53
2022-08-26T11:36:39.570Z,101208.41
2022-08-26T11:39:30.771Z,101200.97
2022-08-26T11:42:20.137Z,101207.47
2022-08-26T11:44:49.159Z,101208.34
2022-08-26T11:47:25.569Z,101202.63
2022-08-26T11:50:14.044Z,101194.56
2022-08-26T11:52:41.636Z,101185.25
2022-08-26T11:55:15.100Z,101190.50
2022-08-26T11:57:45.528Z,101187.31
2022-08-26T12:00:21.169Z,101192.75
2022-08-26T12:02:50.851Z,101196.16
2022-08-26T12:05:31.042Z,101190.75
2022-08-26T12:08:06.409Z,101185.59
2022-08-26T12:10:34.677Z,101189.94
2022-08-26T12:13:04.028Z,101176.94
2022-08-26T12:15:34.925Z,101176.34
2022-08-26T12:18:29.355Z,101179.28
2022-08-26T12:21:00.326Z,101169.44
2022-08-26T12:23:36.716Z,101179.09
2022-08-26T12:26:12.196Z,101178.06
2022-08-26T12:28:52.098Z,101172.88
2022-08-26T12:31:23.533Z,101174.72
2022-08-26T12:33:51.451Z,101164.38
2022-08-26T12:36:25.115Z,101161.91
2022-08-26T12:38:54.549Z,101167.63
2022-08-26T12:41:53.918Z,101166.94
2022-08-26T12:44:53.785Z,101159.53
2022-08-26T12:47:42.187Z,101146.91
2022-08-26T12:50:23.646Z,101139.56
2022-08-26T12:53:01.958Z,101131.72
2022-08-26T12:55:31.842Z,101131.72
2022-08-26T12:58:16.434Z,101127.78
2022-08-26T13:00:49.136Z,101134.00
2022-08-26T13:03:34.815Z,101125.94
2022-08-26T13:06:16.095Z,101119.50
2022-08-26T13:08:54.557Z,101122.34
2022-08-26T13:11:33.019Z,101118.31
2022-08-26T13:14:03.191Z,101120.19
2022-08-26T13:16:36.354Z,101113.06
2022-08-26T13:19:11.874Z,101109.75
2022-08-26T13:21:50.683Z,101108.84
2022-08-26T13:24:35.409Z,101107.63
2022-08-26T13:27:05.319Z,101106.16
2022-08-26T13:29:32.409Z,101101.81
2022-08-26T13:32:00.520Z,101098.31
2022-08-26T13:34:29.876Z,101087.88
2022-08-26T13:36:58.108Z,101079.81
2022-08-26T13:39:28.572Z,101076.19
2022-08-26T13:41:56.483Z,101075.28
2022-08-26T13:44:24.075Z,101080.41
2022-08-26T13:46:51.275Z,101073.97
2022-08-26T13:49:18.586Z,101066.69
2022-08-26T13:51:45.848Z,101066.94
2022-08-26T13:54:13.174Z,101067.97
2022-08-26T13:56:40.389Z,101054.59
2022-08-26T13:59:07.696Z,101058.50
2022-08-26T14:01:35.931Z,101063.81
2022-08-26T14:04:03.656Z,101063.78
2022-08-26T14:06:31.671Z,101066.03
2022-08-26T14:08:58.837Z,101077.91
2022-08-26T14:11:26.091Z,101077.03
2022-08-26T14:13:53.591Z,101083.38
2022-08-26T14:16:34.401Z,101085.50
2022-08-26T14:19:04.173Z,101089.66
2022-08-26T14:21:34.862Z,101084.34
2022-08-26T14:24:02.331Z,101087.19
2022-08-26T14:26:30.093Z,101081.25
2022-08-26T14:29:01.936Z,101088.03
2022-08-26T14:31:31.732Z,101081.44
2022-08-26T14:34:04.028Z,101091.38
2022-08-26T14:36:32.599Z,101102.25
2022-08-26T14:39:12.684Z,101083.00
2022-08-26T14:41:54.508Z,101087.25
2022-08-26T14:44:26.978Z,101088.22
2022-08-26T14:46:54.785Z,101071.16
2022-08-26T14:49:24.362Z,101075.13
2022-08-26T14:51:51.553Z,101060.97
2022-08-26T14:54:19.830Z,101074.47
2022-08-26T14:57:00.450Z,101071.25
2022-08-26T14:59:37.520Z,101064.41
2022-08-26T15:02:07.128Z,101066.59
2022-08-26T15:04:34.896Z,101061.59
2022-08-26T15:07:03.392Z,101058.16
2022-08-26T15:09:37.558Z,101055.16
2022-08-26T15:12:05.826Z,101056.50
2022-08-26T15:14:33.349Z,101064.56
2022-08-26T15:17:01.032Z,101059.66
2022-08-26T15:19:28.627Z,101061.31
2022-08-26T15:21:57.588Z,101056.97
2022-08-26T15:24:29.994Z,101051.22
2022-08-26T15:26:57.740Z,101062.50
2022-08-26T15:29:25.107Z,101062.25
2022-08-26T15:31:52.663Z,101062.00
2022-08-26T15:34:24.503Z,101073.56
2022-08-26T15:36:51.580Z,101068.28
2022-08-26T15:39:19.701Z,101073.25
2022-08-26T15:41:47.038Z,101076.88
2022-08-26T15:44:17.813Z,101061.72
2022-08-26T15:46:45.151Z,101073.78
2022-08-26T15:49:18.381Z,101088.25
2022-08-26T15:51:48.113Z,101086.53
2022-08-26T15:54:16.883Z,101087.81
2022-08-26T15:56:49.481Z,101095.19
2022-08-26T15:59:17.005Z,101112.59
2022-08-26T16:01:44.736Z,101104.00
2022-08-26T16:04:12.426Z,101106.97
2022-08-26T16:06:41.593Z,101116.78
2022-08-26T16:09:09.755Z,101114.34
2022-08-26T16:11:38.042Z,101114.03
2022-08-26T16:14:06.016Z,101098.75
2022-08-26T16:16:36.410Z,101038.69
2022-08-26T16:19:07.430Z,100995.81
2022-08-26T16:21:35.313Z,100917.16
2022-08-26T16:24:03.561Z,100825.00
2022-08-26T16:26:34.324Z,100765.94
2022-08-26T16:29:02.988Z,100764.13
2022-08-26T16:31:30.817Z,100703.69
2022-08-26T16:33:58.314Z,100698.19
2022-08-26T16:36:25.972Z,100652.03
2022-08-26T16:38:56.673Z,100064.50
2022-08-26T16:41:27.558Z,99988.59
2022-08-26T16:43:55.790Z,100038.31
2022-08-26T16:46:25.986Z,100121.63
2022-08-26T16:48:55.884Z,100159.22
2022-08-26T16:51:27.413Z,100196.00
2022-08-26T16:53:55.795Z,100254.75
2022-08-26T16:56:33.532Z,100219.56
2022-08-26T16:59:04.336Z,100192.16
2022-08-26T17:01:32.227Z,100205.47
2022-08-26T17:03:59.961Z,100200.78
2022-08-26T17:06:27.523Z,100149.88
2022-08-26T17:08:55.266Z,100139.72
2022-08-26T17:11:22.802Z,100181.22
2022-08-26T17:13:49.985Z,100188.66
2022-08-26T17:16:17.957Z,100243.88
2022-08-26T17:18:45.504Z,100247.41
2022-08-26T17:21:14.074Z,100206.28
2022-08-26T17:23:43.706Z,100223.09
2022-08-26T17:26:12.361Z,100182.81
2022-08-26T17:28:43.471Z,100122.88
2022-08-26T17:31:14.404Z,100098.94
2022-08-26T17:33:44.433Z,100109.16
2022-08-26T17:36:13.565Z,100102.47
2022-08-26T17:38:41.005Z,100113.03
2022-08-26T17:41:10.100Z,100124.78
2022-08-26T17:43:38.815Z,100178.09
2022-08-26T17:46:08.692Z,100173.41
2022-08-26T17:48:37.084Z,100135.81
2022-08-26T17:51:12.910Z,100115.44
2022-08-26T17:53:41.406Z,100125.19
2022-08-26T17:56:24.373Z,100173.78
2022-08-26T17:59:08.991Z,100198.47
2022-08-26T18:01:42.929Z,100136.94
2022-08-26T18:04:16.628Z,100146.78
2022-08-26T18:06:44.966Z,100078.63
2022-08-26T18:09:12.548Z,100114.59
2022-08-26T18:11:40.335Z,100142.06
2022-08-26T18:14:08.519Z,100093.88
2022-08-26T18:16:39.534Z,100102.47
2022-08-26T18:19:07.390Z,100135.75
2022-08-26T18:21:36.316Z,100175.78
2022-08-26T18:24:03.922Z,100185.16
2022-08-26T18:26:37.057Z,100156.91
2022-08-26T18:29:05.523Z,100346.50
2022-08-26T18:31:33.188Z,100344.94
2022-08-26T18:34:04.088Z,100263.09
2022-08-26T18:36:34.620Z,100179.66
2022-08-26T18:39:02.933Z,100092.72
2022-08-26T18:41:31.840Z,100024.09
2022-08-26T18:44:00.726Z,99983.38
2022-08-26T18:46:28.470Z,99950.38
2022-08-26T18:48:56.842Z,99915.44
2022-08-26T18:51:30.073Z,99899.75
2022-08-26T18:53:58.223Z,99900.56
2022-08-26T18:56:25.619Z,99881.00
2022-08-26T18:58:52.981Z,99904.16
2022-08-26T19:01:23.226Z,99925.75
2022-08-26T19:03:56.866Z,99915.19
2022-08-26T19:06:26.501Z,99920.31
2022-08-26T19:08:55.746Z,99924.59
2022-08-26T19:11:31.733Z,99900.69
2022-08-26T19:14:02.278Z,99902.72
2022-08-26T19:16:30.206Z,99903.13
2022-08-26T19:19:00.992Z,99865.88
2022-08-26T19:21:29.718Z,99871.81
2022-08-26T19:23:58.531Z,99892.22
2022-08-26T19:26:27.450Z,99880.16
2022-08-26T19:28:54.769Z,99867.22
2022-08-26T19:31:22.415Z,99839.81
2022-08-26T19:33:50.413Z,99822.59
2022-08-26T19:36:29.969Z,99812.75
2022-08-26T19:38:57.425Z,99806.13
2022-08-26T19:41:37.459Z,99803.75
2022-08-26T19:44:13.410Z,99799.81
2022-08-26T19:46:42.365Z,99800.59
2022-08-26T19:49:12.357Z,99791.59
2022-08-26T19:51:39.709Z,99775.50
2022-08-26T19:54:06.910Z,99767.72
2022-08-26T19:56:35.021Z,99771.28
2022-08-26T19:59:02.842Z,99746.25
2022-08-26T20:01:31.086Z,99768.59
2022-08-26T20:03:58.896Z,99754.53
2022-08-26T20:06:26.231Z,99727.16
2022-08-26T20:08:53.867Z,99707.50
2022-08-26T20:11:22.435Z,99718.09
2022-08-26T20:13:49.836Z,99712.59
2022-08-26T20:16:17.327Z,99712.97
2022-08-26T20:19:04.858Z,99708.28
2022-08-26T20:21:35.732Z,99698.06
2022-08-26T20:24:08.831Z,99693.81
2022-08-26T20:26:38.347Z,99669.47
2022-08-26T20:29:07.340Z,99669.84
2022-08-26T20:31:36.789Z,99680.88
2022-08-26T20:34:08.380Z,99686.38
2022-08-26T20:36:37.773Z,99680.91
2022-08-26T20:39:05.321Z,99668.34
2022-08-26T20:41:33.581Z,99650.34
2022-08-26T20:44:02.042Z,99662.09
2022-08-26T20:46:29.314Z,99651.84
2022-08-26T20:48:57.728Z,99654.16
2022-08-26T20:51:26.719Z,99641.63
2022-08-26T20:53:53.850Z,99652.56
2022-08-26T20:56:25.223Z,99662.41
2022-08-26T20:58:53.530Z,99660.38
2022-08-26T21:01:24.332Z,99663.19
2022-08-26T21:03:55.806Z,99673.72
2022-08-26T21:06:25.566Z,99669.03
2022-08-26T21:08:55.934Z,99674.56
2022-08-26T21:11:23.189Z,99698.88
2022-08-26T21:14:15.715Z,99708.25
2022-08-26T21:16:40.791Z,99698.91
2022-08-26T21:19:11.033Z,99687.13
2022-08-26T21:21:38.383Z,99686.38
2022-08-26T21:24:06.841Z,99687.59
2022-08-26T21:26:34.676Z,99681.28
2022-08-26T21:29:02.828Z,99664.91
2022-08-26T21:31:32.075Z,99671.47
2022-08-26T21:34:00.238Z,99673.03
2022-08-26T21:36:28.103Z,99665.56
2022-08-26T21:38:59.496Z,99658.88
2022-08-26T21:41:27.330Z,99645.56
2022-08-26T21:43:59.646Z,99651.84
2022-08-26T21:46:29.552Z,99651.03
2022-08-26T21:49:00.325Z,99637.28
2022-08-26T21:51:30.055Z,99637.66
2022-08-26T21:53:58.569Z,99636.50
2022-08-26T21:56:27.529Z,99629.06
2022-08-26T21:58:56.097Z,99618.84
